sensor_id;sensor_type;location;lat;lon;timestamp;pressure;altitude;pressure_sealevel;temperature;humidity
73551;BME280;61816;53.582;10.096;2023-01-15T00:00:38;99069.72;;;6.75;100.00
73551;BME280;61816;53.582;10.096;2023-01-15T00:03:04;99055.97;;;6.70;100.00
73551;BME280;61816;53.582;10.096;2023-01-15T00:05:29;99055.88;;;6.87;100.00
73551;BME280;61816;53.582;10.096;2023-01-15T00:07:55;99057.78;;;6.78;100.00
73551;BME280;61816;53.582;10.096;2023-01-15T00:10:23;99065.06;;;6.69;100.00
73551;BME280;61816;53.582;10.096;2023-01-15T00:12:50;99061.97;;;6.80;100.00
73551;BME280;61816;53.582;10.096;2023-01-15T00:15:16;99063.00;;;6.79;100.00
73551;BME280;61816;53.582;10.096;2023-01-15T00:17:41;99054.25;;;6.77;100.00
73551;BME280;61816;53.582;10.096;2023-01-15T00:20:10;99058.72;;;6.62;100.00
73551;BME280;61816;53.582;10.096;2023-01-15T00:22:36;99059.13;;;6.51;100.00
73551;BME280;61816;53.582;10.096;2023-01-15T00:25:01;99042.66;;;6.54;100.00
73551;BME280;61816;53.582;10.096;2023-01-15T00:27:46;99038.88;;;6.63;100.00
73551;BME280;61816;53.582;10.096;2023-01-15T00:30:14;99056.69;;;6.64;100.00
73551;BME280;61816;53.582;10.096;2023-01-15T00:32:41;99059.38;;;6.64;100.00
73551;BME280;61816;53.582;10.096;2023-01-15T00:35:11;99062.44;;;6.61;100.00
73551;BME280;61816;53.582;10.096;2023-01-15T00:37:36;99078.50;;;6.69;100.00
73551;BME280;61816;53.582;10.096;2023-01-15T00:40:02;99077.09;;;6.50;100.00
73551;BME280;61816;53.582;10.096;2023-01-15T00:42:28;99075.56;;;6.56;100.00
73551;BME280;61816;53.582;10.096;2023-01-15T00:44:53;99080.94;;;6.56;100.00
73551;BME280;61816;53.582;10.096;2023-01-15T00:47:18;99080.94;;;6.56;100.00
73551;BME280;61816;53.582;10.096;2023-01-15T00:49:46;99090.16;;;6.62;100.00
73551;BME280;61816;53.582;10.096;2023-01-15T00:52:12;99088.69;;;6.51;100.00
73551;BME280;61816;53.582;10.096;2023-01-15T00:54:37;99089.31;;;6.61;100.00
73551;BME280;61816;53.582;10.096;2023-01-15T00:57:02;99111.16;;;6.66;100.00
73551;BME280;61816;53.582;10.096;2023-01-15T00:59:28;99093.03;;;6.60;100.00
73551;BME280;61816;53.582;10.096;2023-01-15T01:01:53;99093.03;;;6.60;100.00
73551;BME280;61816;53.582;10.096;2023-01-15T01:04:18;99103.59;;;6.62;100.00
73551;BME280;61816;53.582;10.096;2023-01-15T01:06:44;99111.53;;;6.55;100.00
73551;BME280;61816;53.582;10.096;2023-01-15T01:09:13;99102.81;;;6.53;100.00
73551;BME280;61816;53.582;10.096;2023-01-15T01:11:39;99100.78;;;6.55;100.00
73551;BME280;61816;53.582;10.096;2023-01-15T01:14:04;99103.09;;;6.58;100.00
73551;BME280;61816;53.582;10.096;2023-01-15T01:16:33;99111.41;;;6.48;100.00
73551;BME280;61816;53.582;10.096;2023-01-15T01:19:03;99126.13;;;6.61;100.00
73551;BME280;61816;53.582;10.096;2023-01-15T01:21:29;99126.97;;;6.61;100.00
73551;BME280;61816;53.582;10.096;2023-01-15T01:23:58;99129.69;;;6.53;100.00
73551;BME280;61816;53.582;10.096;2023-01-15T01:26:25;99139.75;;;6.59;100.00
73551;BME280;61816;53.582;10.096;2023-01-15T01:28:52;99128.69;;;6.54;100.00
73551;BME280;61816;53.582;10.096;2023-01-15T01:31:19;99124.66;;;6.50;100.00
73551;BME280;61816;53.582;10.096;2023-01-15T01:33:47;99131.63;;;6.67;100.00
73551;BME280;61816;53.582;10.096;2023-01-15T01:36:14;99123.03;;;6.41;100.00
73551;BME280;61816;53.582;10.096;2023-01-15T01:38:39;99123.69;;;6.43;100.00
73551;BME280;61816;53.582;10.096;2023-01-15T01:41:04;99130.41;;;6.47;100.00
73551;BME280;61816;53.582;10.096;2023-01-15T01:43:30;99127.38;;;6.42;100.00
73551;BME280;61816;53.582;10.096;2023-01-15T01:45:56;99122.97;;;6.49;100.00
73551;BME280;61816;53.582;10.096;2023-01-15T01:48:30;99118.53;;;6.33;100.00
73551;BME280;61816;53.582;10.096;2023-01-15T01:50:59;99118.31;;;6.43;100.00
73551;BME280;61816;53.582;10.096;2023-01-15T01:53:28;99136.06;;;6.60;100.00
73551;BME280;61816;53.582;10.096;2023-01-15T01:55:56;99120.34;;;6.41;100.00
73551;BME280;61816;53.582;10.096;2023-01-15T01:58:23;99117.97;;;6.46;100.00
73551;BME280;61816;53.582;10.096;2023-01-15T02:00:51;99120.94;;;6.51;100.00
73551;BME280;61816;53.582;10.096;2023-01-15T02:03:19;99139.06;;;6.65;100.00
73551;BME280;61816;53.582;10.096;2023-01-15T02:05:52;99124.28;;;6.61;100.00
73551;BME280;61816;53.582;10.096;2023-01-15T02:08:19;99125.28;;;6.60;100.00
73551;BME280;61816;53.582;10.096;2023-01-15T02:10:54;99111.53;;;6.55;100.00
73551;BME280;61816;53.582;10.096;2023-01-15T02:13:36;99110.19;;;6.51;100.00
73551;BME280;61816;53.582;10.096;2023-01-15T02:16:16;99115.56;;;6.51;100.00
73551;BME280;61816;53.582;10.096;2023-01-15T02:18:57;99097.03;;;6.64;100.00
73551;BME280;61816;53.582;10.096;2023-01-15T02:21:38;99107.16;;;6.54;100.00
73551;BME280;61816;53.582;10.096;2023-01-15T02:35:32;99090.66;;;6.65;100.00
73551;BME280;61816;53.582;10.096;2023-01-15T02:38:00;99094.69;;;6.61;100.00
73551;BME280;61816;53.582;10.096;2023-01-15T02:40:29;99085.63;;;6.62;100.00
73551;BME280;61816;53.582;10.096;2023-01-15T02:42:56;99094.00;;;6.67;100.00
73551;BME280;61816;53.582;10.096;2023-01-15T02:45:26;99082.41;;;6.67;100.00
73551;BME280;61816;53.582;10.096;2023-01-15T02:47:56;99061.34;;;6.70;100.00
73551;BME280;61816;53.582;10.096;2023-01-15T02:50:39;99076.19;;;6.66;100.00
73551;BME280;61816;53.582;10.096;2023-01-15T02:53:09;99078.44;;;6.77;100.00
73551;BME280;61816;53.582;10.096;2023-01-15T02:55:41;99086.56;;;6.69;100.00
73551;BME280;61816;53.582;10.096;2023-01-15T02:58:11;99097.00;;;6.72;100.00
73551;BME280;61816;53.582;10.096;2023-01-15T03:00:40;99077.50;;;6.70;100.00
73551;BME280;61816;53.582;10.096;2023-01-15T03:03:30;99091.00;;;6.62;100.00
73551;BME280;61816;53.582;10.096;2023-01-15T03:06:08;99106.06;;;6.71;100.00
73551;BME280;61816;53.582;10.096;2023-01-15T03:08:35;99096.28;;;6.78;100.00
73551;BME280;61816;53.582;10.096;2023-01-15T03:11:07;99088.25;;;6.70;100.00
73551;BME280;61816;53.582;10.096;2023-01-15T03:16:33;99103.22;;;6.65;100.00
73551;BME280;61816;53.582;10.096;2023-01-15T03:19:14;99090.28;;;6.68;100.00
73551;BME280;61816;53.582;10.096;2023-01-15T03:22:29;99117.88;;;6.62;100.00
73551;BME280;61816;53.582;10.096;2023-01-15T03:24:50;99113.69;;;6.60;100.00
73551;BME280;61816;53.582;10.096;2023-01-15T03:27:18;99088.63;;;6.67;100.00
73551;BME280;61816;53.582;10.096;2023-01-15T03:29:47;99110.47;;;6.64;100.00
73551;BME280;61816;53.582;10.096;2023-01-15T03:32:14;99105.09;;;6.64;100.00
73551;BME280;61816;53.582;10.096;2023-01-15T03:34:47;99099.06;;;6.62;100.00
73551;BME280;61816;53.582;10.096;2023-01-15T03:37:14;99091.81;;;6.63;100.00
73551;BME280;61816;53.582;10.096;2023-01-15T03:39:41;99081.44;;;6.60;100.00
73551;BME280;61816;53.582;10.096;2023-01-15T03:42:42;99074.53;;;6.65;100.00
73551;BME280;61816;53.582;10.096;2023-01-15T03:45:31;99079.03;;;6.65;100.00
73551;BME280;61816;53.582;10.096;2023-01-15T03:48:29;99086.25;;;6.64;100.00
73551;BME280;61816;53.582;10.096;2023-01-15T03:51:07;99078.19;;;6.64;100.00
73551;BME280;61816;53.582;10.096;2023-01-15T03:53:41;99081.06;;;6.63;100.00
73551;BME280;61816;53.582;10.096;2023-01-15T03:56:17;99076.19;;;6.66;100.00
73551;BME280;61816;53.582;10.096;2023-01-15T03:58:47;99063.03;;;6.71;100.00
73551;BME280;61816;53.582;10.096;2023-01-15T04:01:20;99066.59;;;6.64;100.00
73551;BME280;61816;53.582;10.096;2023-01-15T04:03:48;99068.78;;;6.68;100.00
73551;BME280;61816;53.582;10.096;2023-01-15T04:06:16;99063.13;;;6.55;100.00
73551;BME280;61816;53.582;10.096;2023-01-15T04:08:43;99055.38;;;6.60;100.00
73551;BME280;61816;53.582;10.096;2023-01-15T04:11:10;99065.06;;;6.69;100.00
73551;BME280;61816;53.582;10.096;2023-01-15T04:13:35;99058.72;;;6.62;100.00
73551;BME280;61816;53.582;10.096;2023-01-15T04:16:01;99046.63;;;6.58;100.00
73551;BME280;61816;53.582;10.096;2023-01-15T04:18:27;99063.75;;;6.65;100.00
73551;BME280;61816;53.582;10.096;2023-01-15T04:20:52;99069.84;;;6.59;100.00
73551;BME280;61816;53.582;10.096;2023-01-15T04:23:22;99052.88;;;6.59;100.00
73551;BME280;61816;53.582;10.096;2023-01-15T04:25:48;99057.13;;;6.53;100.00
73551;BME280;61816;53.582;10.096;2023-01-15T04:28:13;99070.56;;;6.53;100.00
73551;BME280;61816;53.582;10.096;2023-01-15T04:30:39;99056.47;;;6.43;100.00
73551;BME280;61816;53.582;10.096;2023-01-15T04:33:06;99066.59;;;6.41;100.00
73551;BME280;61816;53.582;10.096;2023-01-15T04:35:31;99049.03;;;6.53;100.00
73551;BME280;61816;53.582;10.096;2023-01-15T04:37:58;99036.25;;;6.55;100.00
73551;BME280;61816;53.582;10.096;2023-01-15T04:40:25;99043.31;;;6.56;100.00
73551;BME280;61816;53.582;10.096;2023-01-15T04:43:12;99045.69;;;6.51;100.00
73551;BME280;61816;53.582;10.096;2023-01-15T04:45:57;99047.72;;;6.49;100.00
73551;BME280;61816;53.582;10.096;2023-01-15T04:48:23;99056.47;;;6.43;100.00
73551;BME280;61816;53.582;10.096;2023-01-15T04:50:48;99046.38;;;6.45;100.00
73551;BME280;61816;53.582;10.096;2023-01-15T04:53:14;99037.97;;;6.48;100.00
73551;BME280;61816;53.582;10.096;2023-01-15T04:55:39;99047.38;;;6.52;100.00
73551;BME280;61816;53.582;10.096;2023-01-15T04:58:04;99062.75;;;6.35;100.00
73551;BME280;61816;53.582;10.096;2023-01-15T05:00:30;99047.09;;;6.39;100.00
73551;BME280;61816;53.582;10.096;2023-01-15T05:02:55;99056.81;;;6.48;100.00
73551;BME280;61816;53.582;10.096;2023-01-15T05:05:20;99055.13;;;6.47;100.00
73551;BME280;61816;53.582;10.096;2023-01-15T05:07:46;99027.44;;;6.38;100.00
73551;BME280;61816;53.582;10.096;2023-01-15T05:10:11;99026.31;;;6.33;100.00
73551;BME280;61816;53.582;10.096;2023-01-15T05:12:36;99037.06;;;6.33;100.00
73551;BME280;61816;53.582;10.096;2023-01-15T05:15:02;99031.69;;;6.33;100.00
73551;BME280;61816;53.582;10.096;2023-01-15T05:17:27;99029.03;;;6.24;100.00
73551;BME280;61816;53.582;10.096;2023-01-15T05:19:53;99032.03;;;6.30;100.00
73551;BME280;61816;53.582;10.096;2023-01-15T05:22:18;99052.88;;;6.28;100.00
73551;BME280;61816;53.582;10.096;2023-01-15T05:24:44;99036.06;;;6.25;100.00
73551;BME280;61816;53.582;10.096;2023-01-15T05:27:09;99041.09;;;6.29;100.00
73551;BME280;61816;53.582;10.096;2023-01-15T05:29:35;99035.38;;;6.32;100.00
73551;BME280;61816;53.582;10.096;2023-01-15T05:32:00;99032.03;;;6.30;100.00
73551;BME280;61816;53.582;10.096;2023-01-15T05:34:26;99032.41;;;6.27;100.00
73551;BME280;61816;53.582;10.096;2023-01-15T05:36:51;99038.25;;;6.30;100.00
73551;BME280;61816;53.582;10.096;2023-01-15T05:39:16;99038.03;;;6.40;100.00
73551;BME280;61816;53.582;10.096;2023-01-15T05:41:42;99054.31;;;6.38;100.00
73551;BME280;61816;53.582;10.096;2023-01-15T05:44:18;99028.31;;;6.31;100.00
73551;BME280;61816;53.582;10.096;2023-01-15T05:46:45;99042.78;;;6.30;100.00
73551;BME280;61816;53.582;10.096;2023-01-15T05:49:14;99039.06;;;6.31;100.00
73551;BME280;61816;53.582;10.096;2023-01-15T05:51:40;99036.56;;;6.29;100.00
73551;BME280;61816;53.582;10.096;2023-01-15T05:54:09;99041.09;;;6.29;100.00
73551;BME280;61816;53.582;10.096;2023-01-15T05:56:36;99030.31;;;6.37;100.00
73551;BME280;61816;53.582;10.096;2023-01-15T05:59:04;99060.94;;;6.28;100.00
73551;BME280;61816;53.582;10.096;2023-01-15T06:01:31;99033.38;;;6.34;100.00
73551;BME280;61816;53.582;10.096;2023-01-15T06:03:58;99025.94;;;6.36;100.00
73551;BME280;61816;53.582;10.096;2023-01-15T06:06:24;99020.94;;;6.33;100.00
73551;BME280;61816;53.582;10.096;2023-01-15T06:08:49;99030.69;;;6.25;100.00
73551;BME280;61816;53.582;10.096;2023-01-15T06:11:15;99030.69;;;6.34;100.00
73551;BME280;61816;53.582;10.096;2023-01-15T06:13:40;99042.78;;;6.30;100.00
73551;BME280;61816;53.582;10.096;2023-01-15T06:16:09;99042.91;;;6.36;100.00
73551;BME280;61816;53.582;10.096;2023-01-15T06:18:35;99027.34;;;6.23;100.00
73551;BME280;61816;53.582;10.096;2023-01-15T06:21:08;99061.28;;;6.24;100.00
73551;BME280;61816;53.582;10.096;2023-01-15T06:23:33;99037.44;;;6.21;100.00
73551;BME280;61816;53.582;10.096;2023-01-15T06:26:04;99071.00;;;6.34;100.00
73551;BME280;61816;53.582;10.096;2023-01-15T06:28:30;99029.28;;;6.38;100.00
73551;BME280;61816;53.582;10.096;2023-01-15T06:30:55;99046.13;;;6.32;100.00
73551;BME280;61816;53.582;10.096;2023-01-15T06:33:20;99026.31;;;6.33;100.00
73551;BME280;61816;53.582;10.096;2023-01-15T06:35:46;99012.91;;;6.24;100.00
73551;BME280;61816;53.582;10.096;2023-01-15T06:38:11;99028.69;;;6.28;100.00
73551;BME280;61816;53.582;10.096;2023-01-15T06:40:37;99033.22;;;6.27;100.00
73551;BME280;61816;53.582;10.096;2023-01-15T06:43:04;99033.66;;;6.39;100.00
73551;BME280;61816;53.582;10.096;2023-01-15T06:45:48;99037.78;;;6.27;100.00
73551;BME280;61816;53.582;10.096;2023-01-15T06:48:49;99056.41;;;6.28;100.00
73551;BME280;61816;53.582;10.096;2023-01-15T06:51:15;99037.53;;;6.36;100.00
73551;BME280;61816;53.582;10.096;2023-01-15T06:53:44;99032.66;;;6.40;100.00
73551;BME280;61816;53.582;10.096;2023-01-15T06:56:09;99046.47;;;6.29;100.00
73551;BME280;61816;53.582;10.096;2023-01-15T06:58:34;99057.22;;;6.29;100.00
73551;BME280;61816;53.582;10.096;2023-01-15T07:01:00;99028.00;;;6.34;100.00
73551;BME280;61816;53.582;10.096;2023-01-15T07:03:25;99035.38;;;6.32;100.00
73551;BME280;61816;53.582;10.096;2023-01-15T07:05:51;99038.03;;;6.40;100.00
73551;BME280;61816;53.582;10.096;2023-01-15T07:08:16;99039.00;;;6.47;100.00
73551;BME280;61816;53.582;10.096;2023-01-15T07:10:42;99043.28;;;6.33;100.00
73551;BME280;61816;53.582;10.096;2023-01-15T07:13:08;99044.44;;;6.31;100.00
73551;BME280;61816;53.582;10.096;2023-01-15T07:15:34;99044.44;;;6.31;100.00
73551;BME280;61816;53.582;10.096;2023-01-15T07:18:01;99073.97;;;6.39;100.00
73551;BME280;61816;53.582;10.096;2023-01-15T07:20:28;99048.53;;;6.27;100.00
73551;BME280;61816;53.582;10.096;2023-01-15T07:22:53;99031.69;;;6.33;100.00
73551;BME280;61816;53.582;10.096;2023-01-15T07:25:19;99043.41;;;6.40;100.00
73551;BME280;61816;53.582;10.096;2023-01-15T07:27:47;99030.69;;;6.25;100.00
73551;BME280;61816;53.582;10.096;2023-01-15T07:30:13;99050.53;;;6.24;100.00
73551;BME280;61816;53.582;10.096;2023-01-15T07:32:39;99033.38;;;6.25;100.00
73551;BME280;61816;53.582;10.096;2023-01-15T07:35:04;99027.03;;;6.27;100.00
73551;BME280;61816;53.582;10.096;2023-01-15T07:37:30;99031.56;;;6.26;100.00
73551;BME280;61816;53.582;10.096;2023-01-15T07:39:55;99032.41;;;6.18;100.00
73551;BME280;61816;53.582;10.096;2023-01-15T07:42:21;99029.03;;;6.24;100.00
73551;BME280;61816;53.582;10.096;2023-01-15T07:45:10;99027.72;;;6.20;100.00
73551;BME280;61816;53.582;10.096;2023-01-15T07:48:09;99052.19;;;6.25;100.00
73551;BME280;61816;53.582;10.096;2023-01-15T07:50:53;99051.84;;;6.29;100.00
73551;BME280;61816;53.582;10.096;2023-01-15T07:53:19;99044.19;;;6.17;100.00
73551;BME280;61816;53.582;10.096;2023-01-15T07:55:44;99043.53;;;6.15;100.00
73551;BME280;61816;53.582;10.096;2023-01-15T07:58:09;99027.34;;;6.23;100.00
73551;BME280;61816;53.582;10.096;2023-01-15T08:00:35;99051.84;;;6.29;100.00
73551;BME280;61816;53.582;10.096;2023-01-15T08:03:00;99050.94;;;6.13;100.00
73551;BME280;61816;53.582;10.096;2023-01-15T08:05:27;99046.34;;;6.22;100.00
73551;BME280;61816;53.582;10.096;2023-01-15T08:07:53;99033.44;;;6.17;100.00
73551;BME280;61816;53.582;10.096;2023-01-15T08:10:18;99051.59;;;6.15;100.00
73551;BME280;61816;53.582;10.096;2023-01-15T08:12:44;99046.22;;;6.15;100.00
73551;BME280;61816;53.582;10.096;2023-01-15T08:15:32;99044.31;;;6.24;100.00
73551;BME280;61816;53.582;10.096;2023-01-15T08:17:59;99042.13;;;6.28;100.00
73551;BME280;61816;53.582;10.096;2023-01-15T08:20:25;99041.81;;;6.22;100.00
73551;BME280;61816;53.582;10.096;2023-01-15T08:22:51;99046.47;;;6.29;100.00
73551;BME280;61816;53.582;10.096;2023-01-15T08:25:21;99064.38;;;6.13;100.00
73551;BME280;61816;53.582;10.096;2023-01-15T08:27:47;99053.75;;;6.20;100.00
73551;BME280;61816;53.582;10.096;2023-01-15T08:30:16;99053.53;;;6.30;100.00
73551;BME280;61816;53.582;10.096;2023-01-15T08:32:42;99058.28;;;6.19;100.00
73551;BME280;61816;53.582;10.096;2023-01-15T08:35:08;99063.97;;;6.24;100.00
73551;BME280;61816;53.582;10.096;2023-01-15T08:37:34;99057.28;;;6.12;100.00
73551;BME280;61816;53.582;10.096;2023-01-15T08:39:59;99063.69;;;6.11;100.00
73551;BME280;61816;53.582;10.096;2023-01-15T08:42:25;99059.00;;;6.13;100.00
73551;BME280;61816;53.582;10.096;2023-01-15T08:44:52;99060.00;;;6.04;100.00
73551;BME280;61816;53.582;10.096;2023-01-15T08:47:18;99073.41;;;6.12;100.00
73551;BME280;61816;53.582;10.096;2023-01-15T08:49:45;99045.69;;;6.20;100.00
73551;BME280;61816;53.582;10.096;2023-01-15T08:52:11;99035.50;;;6.07;100.00
73551;BME280;61816;53.582;10.096;2023-01-15T08:54:36;99032.00;;;5.98;100.00
73551;BME280;61816;53.582;10.096;2023-01-15T08:57:01;99034.81;;;6.05;100.00
73551;BME280;61816;53.582;10.096;2023-01-15T08:59:27;99033.66;;;6.08;100.00
73551;BME280;61816;53.582;10.096;2023-01-15T09:01:52;99035.88;;;5.96;100.00
73551;BME280;61816;53.582;10.096;2023-01-15T09:04:20;99037.22;;;6.00;100.00
73551;BME280;61816;53.582;10.096;2023-01-15T09:06:46;99033.38;;;5.94;100.00
73551;BME280;61816;53.582;10.096;2023-01-15T09:09:13;99022.28;;;5.97;100.00
73551;BME280;61816;53.582;10.096;2023-01-15T09:11:38;99016.06;;;5.97;100.00
73551;BME280;61816;53.582;10.096;2023-01-15T09:14:08;99049.31;;;5.88;100.00
73551;BME280;61816;53.582;10.096;2023-01-15T09:16:35;99022.78;;;6.01;100.00
73551;BME280;61816;53.582;10.096;2023-01-15T09:19:02;99025.47;;;6.01;100.00
73551;BME280;61816;53.582;10.096;2023-01-15T09:21:27;99024.63;;;5.92;100.00
73551;BME280;61816;53.582;10.096;2023-01-15T09:23:53;99013.38;;;5.89;100.00
73551;BME280;61816;53.582;10.096;2023-01-15T09:26:27;99020.44;;;5.90;100.00
73551;BME280;61816;53.582;10.096;2023-01-15T09:28:54;99047.28;;;5.98;100.00
73551;BME280;61816;53.582;10.096;2023-01-15T09:31:20;99033.34;;;6.03;100.00
73551;BME280;61816;53.582;10.096;2023-01-15T09:33:46;99028.63;;;6.05;100.00
73551;BME280;61816;53.582;10.096;2023-01-15T09:36:16;99030.78;;;6.09;100.00
73551;BME280;61816;53.582;10.096;2023-01-15T09:38:42;99037.13;;;6.16;100.00
73551;BME280;61816;53.582;10.096;2023-01-15T09:41:10;99030.69;;;6.25;100.00
73551;BME280;61816;53.582;10.096;2023-01-15T09:49:36;99061.22;;;6.41;99.02
73551;BME280;61816;53.582;10.096;2023-01-15T09:57:26;99057.50;;;6.42;95.94
73551;BME280;61816;53.582;10.096;2023-01-15T09:59:56;99071.72;;;6.50;94.71
73551;BME280;61816;53.582;10.096;2023-01-15T10:02:45;99046.25;;;6.38;93.89
73551;BME280;61816;53.582;10.096;2023-01-15T10:05:22;99051.56;;;6.55;93.41
73551;BME280;61816;53.582;10.096;2023-01-15T10:08:11;99045.69;;;6.51;92.77
73551;BME280;61816;53.582;10.096;2023-01-15T10:11:16;99058.16;;;6.44;92.55
73551;BME280;61816;53.582;10.096;2023-01-15T10:14:05;99043.03;;;6.43;93.66
73551;BME280;61816;53.582;10.096;2023-01-15T10:16:33;99039.72;;;6.41;92.36
73551;BME280;61816;53.582;10.096;2023-01-15T10:19:00;99038.28;;;6.53;91.72
73551;BME280;61816;53.582;10.096;2023-01-15T10:24:15;99096.47;;;6.38;92.07
73551;BME280;61816;53.582;10.096;2023-01-15T10:26:55;99065.19;;;6.53;91.78
73551;BME280;61816;53.582;10.096;2023-01-15T10:29:51;99056.09;;;6.54;90.83
73551;BME280;61816;53.582;10.096;2023-01-15T10:32:22;99030.25;;;6.45;89.89
73551;BME280;61816;53.582;10.096;2023-01-15T10:37:22;99040.22;;;6.67;88.87
73551;BME280;61816;53.582;10.096;2023-01-15T10:43:18;99029.22;;;6.77;89.00
73551;BME280;61816;53.582;10.096;2023-01-15T10:45:57;99006.13;;;6.83;87.30
73551;BME280;61816;53.582;10.096;2023-01-15T10:51:11;99030.16;;;6.61;87.74
73551;BME280;61816;53.582;10.096;2023-01-15T10:53:46;99053.34;;;6.62;87.40
73551;BME280;61816;53.582;10.096;2023-01-15T10:59:23;99020.13;;;6.55;87.68
73551;BME280;61816;53.582;10.096;2023-01-15T11:01:53;99031.38;;;6.59;88.25
73551;BME280;61816;53.582;10.096;2023-01-15T11:04:19;99067.38;;;6.49;88.77
73551;BME280;61816;53.582;10.096;2023-01-15T11:06:45;99024.53;;;6.48;88.80
73551;BME280;61816;53.582;10.096;2023-01-15T11:09:25;99026.47;;;6.62;88.74
73551;BME280;61816;53.582;10.096;2023-01-15T11:12:18;99016.66;;;6.69;88.60
73551;BME280;61816;53.582;10.096;2023-01-15T11:14:45;99023.47;;;6.57;88.82
73551;BME280;61816;53.582;10.096;2023-01-15T11:17:50;99009.00;;;6.58;89.02
73551;BME280;61816;53.582;10.096;2023-01-15T11:20:42;99018.00;;;6.73;87.96
73551;BME280;61816;53.582;10.096;2023-01-15T11:23:17;99035.19;;;6.64;88.88
73551;BME280;61816;53.582;10.096;2023-01-15T11:25:55;99007.69;;;6.54;88.83
73551;BME280;61816;53.582;10.096;2023-01-15T11:28:32;98978.44;;;6.59;89.38
73551;BME280;61816;53.582;10.096;2023-01-15T11:30:59;98964.69;;;6.54;88.69
73551;BME280;61816;53.582;10.096;2023-01-15T11:33:26;98976.03;;;6.64;88.16
73551;BME280;61816;53.582;10.096;2023-01-15T11:35:58;99019.63;;;6.51;89.02
73551;BME280;61816;53.582;10.096;2023-01-15T11:38:25;99042.03;;;6.44;89.85
73551;BME280;61816;53.582;10.096;2023-01-15T11:43:22;98973.88;;;6.37;92.43
73551;BME280;61816;53.582;10.096;2023-01-15T11:46:23;99002.66;;;6.28;92.66
73551;BME280;61816;53.582;10.096;2023-01-15T11:49:08;99008.59;;;6.15;93.71
73551;BME280;61816;53.582;10.096;2023-01-15T11:51:54;99031.84;;;5.84;96.04
73551;BME280;61816;53.582;10.096;2023-01-15T11:54:22;99138.13;;;5.37;100.00
73551;BME280;61816;53.582;10.096;2023-01-15T11:56:56;99048.41;;;4.67;100.00
73551;BME280;61816;53.582;10.096;2023-01-15T11:59:22;99049.72;;;4.54;100.00
73551;BME280;61816;53.582;10.096;2023-01-15T12:02:15;99076.16;;;4.41;100.00
73551;BME280;61816;53.582;10.096;2023-01-15T12:04:53;99048.28;;;4.18;100.00
73551;BME280;61816;53.582;10.096;2023-01-15T12:07:22;99056.34;;;3.58;100.00
73551;BME280;61816;53.582;10.096;2023-01-15T12:13:29;98971.19;;;3.19;100.00
73551;BME280;61816;53.582;10.096;2023-01-15T12:16:06;98984.81;;;3.60;100.00
73551;BME280;61816;53.582;10.096;2023-01-15T12:18:49;98990.44;;;3.91;100.00
73551;BME280;61816;53.582;10.096;2023-01-15T12:21:25;98989.47;;;3.92;100.00
73551;BME280;61816;53.582;10.096;2023-01-15T12:26:30;98996.16;;;4.04;100.00
73551;BME280;61816;53.582;10.096;2023-01-15T12:29:20;98995.38;;;4.12;100.00
73551;BME280;61816;53.582;10.096;2023-01-15T12:31:53;98999.09;;;4.35;100.00
73551;BME280;61816;53.582;10.096;2023-01-15T12:37:20;98982.38;;;4.82;100.00
73551;BME280;61816;53.582;10.096;2023-01-15T12:42:44;98963.66;;;4.90;100.00
73551;BME280;61816;53.582;10.096;2023-01-15T12:45:36;98948.88;;;4.94;100.00
73551;BME280;61816;53.582;10.096;2023-01-15T12:48:27;98968.63;;;5.01;100.00
73551;BME280;61816;53.582;10.096;2023-01-15T12:50:59;98977.03;;;5.06;100.00
73551;BME280;61816;53.582;10.096;2023-01-15T12:53:31;98964.97;;;5.02;100.00
73551;BME280;61816;53.582;10.096;2023-01-15T12:56:22;98976.00;;;5.24;100.00
73551;BME280;61816;53.582;10.096;2023-01-15T12:59:06;98944.25;;;5.43;100.00
73551;BME280;61816;53.582;10.096;2023-01-15T13:01:47;98957.53;;;5.37;100.00
73551;BME280;61816;53.582;10.096;2023-01-15T13:04:25;98928.56;;;5.63;100.00
73551;BME280;61816;53.582;10.096;2023-01-15T13:07:03;98942.00;;;5.63;100.00
73551;BME280;61816;53.582;10.096;2023-01-15T13:09:42;98930.63;;;6.01;100.00
73551;BME280;61816;53.582;10.096;2023-01-15T13:12:14;98942.09;;;5.78;100.00
73551;BME280;61816;53.582;10.096;2023-01-15T13:14:41;98910.09;;;5.68;100.00
73551;BME280;61816;53.582;10.096;2023-01-15T13:17:16;98930.50;;;5.78;100.00
73551;BME280;61816;53.582;10.096;2023-01-15T13:22:18;98928.47;;;5.80;100.00
73551;BME280;61816;53.582;10.096;2023-01-15T13:27:29;98965.88;;;5.89;100.00
73551;BME280;61816;53.582;10.096;2023-01-15T13:33:28;98923.06;;;5.96;100.00
73551;BME280;61816;53.582;10.096;2023-01-15T13:36:03;98926.44;;;5.90;100.00
73551;BME280;61816;53.582;10.096;2023-01-15T13:38:37;98934.50;;;5.90;100.00
73551;BME280;61816;53.582;10.096;2023-01-15T13:41:05;98904.94;;;5.90;100.00
73551;BME280;61816;53.582;10.096;2023-01-15T13:43:37;98885.47;;;5.96;100.00
73551;BME280;61816;53.582;10.096;2023-01-15T13:46:11;98907.44;;;5.99;100.00
73551;BME280;61816;53.582;10.096;2023-01-15T13:48:43;98937.28;;;6.05;100.00
73551;BME280;61816;53.582;10.096;2023-01-15T13:51:30;98910.78;;;6.02;100.00
73551;BME280;61816;53.582;10.096;2023-01-15T13:54:01;98903.16;;;6.13;100.00
73551;BME280;61816;53.582;10.096;2023-01-15T13:56:32;98897.78;;;6.13;100.00
73551;BME280;61816;53.582;10.096;2023-01-15T13:59:02;98911.16;;;6.21;100.00
73551;BME280;61816;53.582;10.096;2023-01-15T14:06:48;98909.03;;;6.40;100.00
73551;BME280;61816;53.582;10.096;2023-01-15T14:12:31;98928.59;;;6.25;100.00
73551;BME280;61816;53.582;10.096;2023-01-15T14:15:25;98891.34;;;6.22;100.00
73551;BME280;61816;53.582;10.096;2023-01-15T14:23:39;98911.75;;;6.32;99.04
73551;BME280;61816;53.582;10.096;2023-01-15T14:32:13;98890.25;;;6.32;97.58